This is the latest recevied weather packets stored in our database for station/object IQ1LY-3. If no packets are shown the sender has not sent any weather packets the latest 10 day(s).
| Time | Temp. | Humidity | Pressure | Rain* | Wind** | Luminosity | Snow |
|---|---|---|---|---|---|---|---|
| 1777143944 | 16.67° C | 79% | 1016.3 hPa | 0 mm | - | - | - |
| 1777142680 | 16.67° C | 78% | 1015.9 hPa | 0 mm | - | - | - |
| 1777141415 | 16.67° C | 78% | 1015.9 hPa | 0 mm | - | - | - |
| 1777139012 | 17.22° C | 77% | 1015.6 hPa | 0 mm | - | - | - |
| 1777138411 | 17.22° C | 77% | 1015.6 hPa | 0 mm | - | - | - |
| 1777135406 | 17.22° C | 77% | 1015.6 hPa | 0 mm | - | - | - |
| 1777127503 | 18.33° C | 74% | 1015.6 hPa | 0 mm | - | - | - |
| 1777126270 | 18.33° C | 74% | 1015.9 hPa | 0 mm | - | - | - |
| 1777120200 | 18.33° C | 75% | 1016.6 hPa | 0 mm | - | - | - |
| 1777116377 | 18.33° C | 74% | 1016.9 hPa | 0 mm | - | - | - |
| 1777113341 | 18.33° C | 73% | 1017.3 hPa | 0 mm | - | - | - |
| 1777111508 | 18.33° C | 73% | 1017.3 hPa | 0 mm | - | - | - |
| 1777106638 | 17.78° C | 74% | 1017.3 hPa | 0 mm | - | - | - |
| 1777106037 | 17.78° C | 74% | 1017.3 hPa | 0 mm | - | - | - |
| 1777104203 | 17.22° C | 77% | 1017.3 hPa | 0 mm | - | - | - |
| 1777101768 | 16.67° C | 79% | 1017.3 hPa | 0 mm | - | - | - |
| 1777098734 | 15.56° C | 85% | 1017.3 hPa | 0 mm | - | - | - |
| 1777095098 | 12.78° C | 88% | 1016.9 hPa | 0 mm | - | - | - |
| 1777093865 | 12.22° C | 88% | 1016.6 hPa | 0 mm | - | - | - |
| 1777090198 | 12.22° C | 86% | 1016.3 hPa | 0 mm | - | - | - |
| 1777088396 | 12.78° C | 84% | 1016.3 hPa | 0 mm | - | - | - |
| 1777083496 | 13.33° C | 84% | 1016.3 hPa | 0 mm | - | - | - |
| 1777078690 | 13.33° C | 84% | 1016.6 hPa | 0 mm | - | - | - |
| 1777073851 | 13.33° C | 83% | 1016.6 hPa | 0 mm | - | - | - |
| 1777072049 | 13.33° C | 83% | 1016.6 hPa | 0 mm | - | - | - |
* Rain latest hour (hover to see other rain measurements)
** Current wind speed in m/s (hover to see current wind gust speed)